Time;durP1;ratioP1;P1;durP2;ratioP2;P2;SDS_P1;SDS_P2;PMS_P1;PMS_P2;Temp;Humidity;BMP_temperature;BMP_pressure;BME280_temperature;BME280_humidity;BME280_pressure;Samples;Min_cycle;Max_cycle;Signal;HPM_P1;HPM_P2
2022/08/19 00:00:04;;;;;;;;;;;;;;;24.03;70.14;96657.02;611761;232;66541;-69
2022/08/19 00:02:31;;;;;;;;;;;;;;;24.02;70.14;96653.55;611073;232;65042;-69
2022/08/19 00:04:59;;;;;;;;;;;;;;;24.02;70.08;96650.86;609071;233;68608;-69
2022/08/19 00:07:27;;;;;;;;;;;;;;;24.01;70.13;96654.65;609065;233;68873;-69
2022/08/19 00:09:54;;;;;;;;;;;;;;;24.02;70.11;96650.07;609078;233;62667;-69
2022/08/19 00:12:23;;;;;;;;;;;;;;;24.02;70.07;96655.44;609093;233;66450;-69
2022/08/19 00:14:52;;;;;;;;;;;;;;;24.01;69.97;96661.88;609033;233;66556;-69
2022/08/19 00:17:21;;;;;;;;;;;;;;;24.01;70.00;96649.28;609075;233;64984;-69
2022/08/19 00:19:48;;;;;;;;;;;;;;;24.01;70.00;96653.83;609057;233;66402;-68
2022/08/19 00:22:17;;;;;;;;;;;;;;;24.01;69.78;96654.65;609063;233;66070;-69
2022/08/19 00:24:46;;;;;;;;;;;;;;;24.02;69.78;96642.02;609114;233;65247;-69
2022/08/19 00:27:14;;;;;;;;;;;;;;;24.01;69.75;96648.46;609059;233;69026;-69
2022/08/19 00:29:42;;;;;;;;;;;;;;;24.01;69.82;96657.33;609003;231;66752;-69
2022/08/19 00:32:10;;;;;;;;;;;;;;;24.00;69.80;96644.98;609066;233;65052;-69
2022/08/19 00:34:38;;;;;;;;;;;;;;;24.00;69.76;96647.67;609046;233;66533;-69
2022/08/19 00:37:05;;;;;;;;;;;;;;;24.01;69.72;96643.09;609081;233;66442;-69
2022/08/19 00:39:33;;;;;;;;;;;;;;;24.00;69.91;96642.30;609053;233;64879;-69
2022/08/19 00:42:00;;;;;;;;;;;;;;;24.01;69.92;96643.09;609052;233;68657;-68
2022/08/19 00:44:30;;;;;;;;;;;;;;;24.00;69.92;96644.98;609060;233;68492;-68
2022/08/19 00:46:58;;;;;;;;;;;;;;;23.99;69.83;96638.04;609116;233;65018;-69
2022/08/19 00:49:31;;;;;;;;;;;;;;;24.00;69.77;96639.62;609142;233;67993;-69
2022/08/19 00:52:00;;;;;;;;;;;;;;;24.00;69.94;96636.94;609095;233;68239;-68
2022/08/19 00:54:31;;;;;;;;;;;;;;;24.00;69.98;96638.83;608867;233;62738;-69
2022/08/19 00:57:00;;;;;;;;;;;;;;;23.99;70.02;96639.94;609096;233;69960;-69
2022/08/19 00:59:28;;;;;;;;;;;;;;;23.99;69.98;96640.72;609057;233;66621;-68
2022/08/19 01:01:58;;;;;;;;;;;;;;;23.99;69.87;96640.72;609050;232;66018;-68
2022/08/19 01:04:25;;;;;;;;;;;;;;;23.98;69.87;96639.15;609102;233;68872;-66
2022/08/19 01:06:53;;;;;;;;;;;;;;;23.98;70.55;96639.15;609077;233;66478;-65
2022/08/19 01:09:20;;;;;;;;;;;;;;;23.97;70.71;96645.59;609089;233;62750;-65
2022/08/19 01:11:48;;;;;;;;;;;;;;;23.98;70.78;96655.25;609103;233;66431;-65
2022/08/19 01:14:16;;;;;;;;;;;;;;;23.96;71.02;96646.70;609090;233;66429;-65
2022/08/19 01:16:47;;;;;;;;;;;;;;;23.96;70.68;96649.38;609174;233;44883;-66
2022/08/19 01:19:19;;;;;;;;;;;;;;;23.98;70.58;96649.06;609040;233;66330;-65
2022/08/19 01:21:48;;;;;;;;;;;;;;;23.97;70.19;96652.85;608974;233;69009;-65
2022/08/19 01:24:16;;;;;;;;;;;;;;;23.96;70.66;96657.43;608733;233;62682;-65
2022/08/19 01:26:44;;;;;;;;;;;;;;;23.96;70.39;96660.11;609077;233;66722;-65
2022/08/19 01:29:12;;;;;;;;;;;;;;;23.96;70.48;96662.01;609083;233;68656;-65
2022/08/19 01:31:39;;;;;;;;;;;;;;;23.96;70.33;96667.38;609132;233;62782;-65
2022/08/19 01:34:07;;;;;;;;;;;;;;;23.96;70.33;96656.64;609076;233;68519;-65
2022/08/19 01:36:36;;;;;;;;;;;;;;;23.95;70.77;96661.19;609122;233;68438;-68
2022/08/19 01:39:05;;;;;;;;;;;;;;;23.96;70.83;96664.69;609077;233;64882;-68
2022/08/19 01:41:33;;;;;;;;;;;;;;;23.95;70.84;96666.55;609034;233;66706;-69
2022/08/19 01:44:03;;;;;;;;;;;;;;;23.95;70.87;96665.77;609077;233;69176;-69
2022/08/19 01:46:31;;;;;;;;;;;;;;;23.95;71.26;96666.55;609087;233;64899;-68
2022/08/19 01:48:59;;;;;;;;;;;;;;;23.95;71.17;96669.23;609047;233;66718;-69
2022/08/19 01:51:27;;;;;;;;;;;;;;;23.94;71.16;96675.71;609121;233;68660;-69
2022/08/19 01:53:54;;;;;;;;;;;;;;;23.94;71.17;96675.71;609074;233;64813;-69
2022/08/19 01:56:22;;;;;;;;;;;;;;;23.95;71.27;96669.23;609039;233;68660;-69
2022/08/19 01:58:51;;;;;;;;;;;;;;;23.93;71.29;96671.45;609085;233;68663;-69
2022/08/19 02:01:19;;;;;;;;;;;;;;;23.93;71.20;96668.77;609089;233;62663;-69
2022/08/19 02:03:46;;;;;;;;;;;;;;;23.93;71.47;96663.40;610169;231;66383;-69
2022/08/19 02:06:16;;;;;;;;;;;;;;;23.92;71.17;96667.95;611838;232;68999;-69
2022/08/19 02:08:45;;;;;;;;;;;;;;;23.91;71.43;96661.00;611873;232;62727;-68
2022/08/19 02:11:14;;;;;;;;;;;;;;;23.92;71.18;96661.79;611863;232;66596;-69
2022/08/19 02:13:41;;;;;;;;;;;;;;;23.91;71.71;96663.69;611590;232;68638;-69
2022/08/19 02:16:09;;;;;;;;;;;;;;;23.91;72.27;96666.36;611850;231;63687;-69
2022/08/19 02:18:38;;;;;;;;;;;;;;;23.92;72.42;96675.20;611848;232;66473;-69
2022/08/19 02:21:06;;;;;;;;;;;;;;;23.91;72.51;96681.68;611807;232;68564;-69
2022/08/19 02:23:33;;;;;;;;;;;;;;;23.91;72.19;96674.41;611864;232;65218;-69
2022/08/19 02:26:00;;;;;;;;;;;;;;;;;;611869;232;68699;-69
2022/08/19 02:28:27;;;;;;;;;;;;;;;23.91;72.42;96679.00;611891;232;66686;-69
2022/08/19 02:30:54;;;;;;;;;;;;;;;;;;611842;232;65086;-69
2022/08/19 02:33:20;;;;;;;;;;;;;;;;;;611848;232;67727;-69
2022/08/19 02:35:47;;;;;;;;;;;;;;;23.90;72.62;96690.83;611935;232;68346;-69
2022/08/19 02:38:27;;;;;;;;;;;;;;;23.90;72.47;96685.47;611801;228;62748;-69
2022/08/19 02:40:54;;;;;;;;;;;;;;;;;;611828;232;68782;-69
2022/08/19 02:43:22;;;;;;;;;;;;;;;23.89;72.59;96686.54;611858;232;67140;-68
2022/08/19 02:45:51;;;;;;;;;;;;;;;23.89;72.35;96683.86;611840;232;62863;-68
2022/08/19 02:48:20;;;;;;;;;;;;;;;23.88;72.33;96677.70;611876;232;68751;-68
2022/08/19 02:50:48;;;;;;;;;;;;;;;23.89;72.94;96684.65;611572;232;68319;-68
2022/08/19 02:53:15;;;;;;;;;;;;;;;23.88;72.51;96682.28;611827;232;65093;-68
2022/08/19 02:55:47;;;;;;;;;;;;;;;23.87;72.63;96683.35;611838;232;66410;-68
2022/08/19 02:58:15;;;;;;;;;;;;;;;23.88;72.65;96698.38;611745;232;66727;-67
2022/08/19 03:00:44;;;;;;;;;;;;;;;23.88;72.71;96693.80;611831;232;64921;-68
2022/08/19 03:03:11;;;;;;;;;;;;;;;23.88;72.50;96698.38;611805;232;68645;-68
2022/08/19 03:05:40;;;;;;;;;;;;;;;23.88;72.76;96699.17;611830;232;68345;-68
2022/08/19 03:08:09;;;;;;;;;;;;;;;23.87;72.81;96697.59;611817;232;65009;-68
2022/08/19 03:10:38;;;;;;;;;;;;;;;23.87;72.81;96702.14;611815;232;68704;-64
2022/08/19 03:13:06;;;;;;;;;;;;;;;23.88;72.67;96698.38;611762;232;68447;-64
2022/08/19 03:15:33;;;;;;;;;;;;;;;23.87;72.30;96696.77;611884;230;64900;-64
2022/08/19 03:18:01;;;;;;;;;;;;;;;23.87;72.45;96691.41;611854;232;66954;-64
2022/08/19 03:20:28;;;;;;;;;;;;;;;23.86;72.49;96701.34;611855;232;66177;-65
2022/08/19 03:22:56;;;;;;;;;;;;;;;23.86;72.56;96697.88;611824;232;65048;-65
2022/08/19 03:25:24;;;;;;;;;;;;;;;23.87;72.61;96707.50;611832;232;68606;-65
2022/08/19 03:27:51;;;;;;;;;;;;;;;23.86;72.83;96711.29;611895;231;66224;-65
2022/08/19 03:30:19;;;;;;;;;;;;;;;23.86;72.71;96708.61;611820;232;63815;-64
2022/08/19 03:32:47;;;;;;;;;;;;;;;23.86;72.71;96708.61;611832;232;68134;-64
2022/08/19 03:35:14;;;;;;;;;;;;;;;23.85;72.62;96709.71;611843;232;66212;-64
2022/08/19 03:37:41;;;;;;;;;;;;;;;23.85;72.59;96710.50;611814;232;62731;-65
2022/08/19 03:40:09;;;;;;;;;;;;;;;23.85;72.64;96702.45;611890;232;69582;-64
2022/08/19 03:42:42;;;;;;;;;;;;;;;23.85;72.79;96707.03;611827;230;68695;-64
2022/08/19 03:45:10;;;;;;;;;;;;;;;23.85;72.90;96704.34;611756;231;65305;-65
2022/08/19 03:47:37;;;;;;;;;;;;;;;23.84;72.75;96708.89;611832;232;66420;-65
2022/08/19 03:50:05;;;;;;;;;;;;;;;23.84;72.61;96716.94;611810;232;66335;-69
2022/08/19 03:52:33;;;;;;;;;;;;;;;23.85;72.48;96720.45;611805;232;65038;-68
2022/08/19 03:55:00;;;;;;;;;;;;;;;23.84;72.51;96716.94;611866;232;68562;-69
2022/08/19 03:57:28;;;;;;;;;;;;;;;23.85;72.62;96720.45;611778;232;66416;-68
2022/08/19 03:59:55;;;;;;;;;;;;;;;23.84;72.87;96716.16;611791;232;62814;-68
2022/08/19 04:02:23;;;;;;;;;;;;;;;23.84;72.75;96718.83;611818;232;68945;-68
2022/08/19 04:04:52;;;;;;;;;;;;;;;23.84;72.72;96721.52;602032;235;68267;-65
2022/08/19 04:07:21;;;;;;;;;;;;;;;23.84;72.59;96718.83;602091;235;62634;-65
2022/08/19 04:09:50;;;;;;;;;;;;;;;23.82;72.66;96724.52;601975;235;68742;-65
2022/08/19 04:12:20;;;;;;;;;;;;;;;23.83;72.79;96725.30;602003;235;69056;-65
2022/08/19 04:14:47;;;;;;;;;;;;;;;23.82;72.68;96721.83;602022;235;64883;-65
2022/08/19 04:17:14;;;;;;;;;;;;;;;23.83;72.70;96719.94;602021;235;68883;-65
2022/08/19 04:19:42;;;;;;;;;;;;;;;23.83;72.68;96723.41;602078;235;68544;-65
2022/08/19 04:22:11;;;;;;;;;;;;;;;23.83;72.71;96722.63;601983;235;62861;-65
2022/08/19 04:24:38;;;;;;;;;;;;;;;23.82;72.68;96724.52;602022;235;68624;-65
2022/08/19 04:27:06;;;;;;;;;;;;;;;23.82;72.66;96726.41;602020;235;68738;-68
2022/08/19 04:29:34;;;;;;;;;;;;;;;23.83;72.60;96727.98;602030;235;64872;-68
2022/08/19 04:32:02;;;;;;;;;;;;;;;23.82;72.72;96726.41;602047;235;69325;-68
2022/08/19 04:34:30;;;;;;;;;;;;;;;23.82;72.72;96729.09;602069;235;68403;-68
2022/08/19 04:36:58;;;;;;;;;;;;;;;23.83;72.73;96733.36;601966;235;64939;-69
2022/08/19 04:44:58;;;;;;;;;;;;;;;23.81;72.72;96738.22;602036;235;62439;-64
2022/08/19 04:47:26;;;;;;;;;;;;;;;23.82;72.74;96742.51;602020;235;66462;-64
2022/08/19 04:49:53;;;;;;;;;;;;;;;23.81;72.73;96732.84;602221;235;68668;-67
2022/08/19 04:52:21;;;;;;;;;;;;;;;23.80;72.56;96733.95;602007;235;65255;-68
2022/08/19 04:54:49;;;;;;;;;;;;;;;23.80;72.72;96734.74;602044;235;68620;-68
2022/08/19 04:57:16;;;;;;;;;;;;;;;23.82;72.78;96734.45;602033;235;66452;-67
2022/08/19 04:59:43;;;;;;;;;;;;;;;23.81;72.89;96735.53;601964;235;62740;-69
2022/08/19 05:02:11;;;;;;;;;;;;;;;23.81;72.76;96727.48;602040;235;68940;-69
2022/08/19 05:04:39;;;;;;;;;;;;;;;23.80;72.88;96723.22;611020;232;66650;-70
2022/08/19 05:07:09;;;;;;;;;;;;;;;23.81;72.80;96719.43;611708;232;65201;-70
2022/08/19 05:09:36;;;;;;;;;;;;;;;23.81;72.47;96727.48;611651;232;66514;-69
2022/08/19 05:12:05;;;;;;;;;;;;;;;23.81;72.64;96725.59;611823;232;68810;-69
2022/08/19 05:14:33;;;;;;;;;;;;;;;23.81;72.56;96728.27;611853;232;62835;-69
2022/08/19 05:17:01;;;;;;;;;;;;;;;23.80;72.46;96734.74;611808;232;68777;-70
2022/08/19 05:22:34;;;;;;;;;;;;;;;23.81;72.64;96728.27;611773;230;62826;-65
2022/08/19 05:25:03;;;;;;;;;;;;;;;23.81;72.67;96722.91;611693;232;68602;-65
2022/08/19 05:27:31;;;;;;;;;;;;;;;23.81;72.76;96732.84;611765;232;69057;-65
2022/08/19 05:29:58;;;;;;;;;;;;;;;23.81;72.81;96722.11;611801;232;62731;-69
2022/08/19 05:32:26;;;;;;;;;;;;;;;23.81;72.64;96720.22;611879;232;68669;-69
2022/08/19 05:34:54;;;;;;;;;;;;;;;23.82;72.72;96723.72;611826;232;68552;-69
2022/08/19 05:37:22;;;;;;;;;;;;;;;23.81;72.88;96720.22;611810;232;65084;-65
2022/08/19 05:39:49;;;;;;;;;;;;;;;23.81;72.63;96724.80;611837;232;66493;-64
2022/08/19 05:42:19;;;;;;;;;;;;;;;23.81;72.26;96725.59;611834;232;68540;-64
2022/08/19 05:44:47;;;;;;;;;;;;;;;23.82;72.53;96719.15;611932;230;62812;-64
2022/08/19 05:47:15;;;;;;;;;;;;;;;23.82;72.84;96721.83;611800;230;68323;-64
2022/08/19 05:49:43;;;;;;;;;;;;;;;23.82;72.85;96721.05;611798;232;66470;-64
2022/08/19 05:52:12;;;;;;;;;;;;;;;23.82;72.57;96707.63;611643;232;62825;-66
2022/08/19 05:54:41;;;;;;;;;;;;;;;23.82;72.81;96719.15;611549;232;68836;-64
2022/08/19 05:57:09;;;;;;;;;;;;;;;23.82;72.85;96718.36;611597;232;69478;-66
2022/08/19 05:59:36;;;;;;;;;;;;;;;23.82;72.38;96711.09;611668;232;65230;-69
2022/08/19 06:02:05;;;;;;;;;;;;;;;23.84;69.92;96716.94;611665;232;68666;-68
2022/08/19 06:04:32;;;;;;;;;;;;;;;23.85;70.01;96718.55;609373;232;68750;-68
2022/08/19 06:07:01;;;;;;;;;;;;;;;23.87;70.53;96720.92;608530;233;64913;-68
2022/08/19 06:09:32;;;;;;;;;;;;;;;23.88;70.63;96717.16;608990;233;66429;-68
2022/08/19 06:12:01;;;;;;;;;;;;;;;23.87;71.20;96719.06;609115;233;66475;-64
2022/08/19 06:14:30;;;;;;;;;;;;;;;23.86;70.50;96722.03;608942;233;63090;-64
2022/08/19 06:17:01;;;;;;;;;;;;;;;23.86;68.28;96722.81;609612;232;68614;-66
2022/08/19 06:19:33;;;;;;;;;;;;;;;23.88;68.58;96717.16;611616;232;73380;-66
2022/08/19 06:21:58;;;;;;;;;;;;;;;23.90;68.58;96725.72;611437;232;62745;-67
2022/08/19 06:24:27;;;;;;;;;;;;;;;23.91;68.48;96719.25;611714;232;66657;-66
2022/08/19 06:26:56;;;;;;;;;;;;;;;23.91;68.10;96722.73;611644;232;66869;-66
2022/08/19 06:29:24;;;;;;;;;;;;;;;23.93;68.65;96722.44;611580;232;64917;-66
2022/08/19 06:31:53;;;;;;;;;;;;;;;23.93;68.83;96723.23;611666;232;68861;-66
2022/08/19 06:34:21;;;;;;;;;;;;;;;23.94;68.79;96718.66;611653;232;68411;-66
2022/08/19 06:36:50;;;;;;;;;;;;;;;23.95;69.12;96724.81;611692;232;64992;-65
2022/08/19 06:39:19;;;;;;;;;;;;;;;23.96;69.45;96721.84;611721;232;69094;-65
2022/08/19 06:41:48;;;;;;;;;;;;;;;23.96;69.68;96719.16;611448;232;68837;-64
2022/08/19 06:44:18;;;;;;;;;;;;;;;23.97;69.80;96720.73;611514;232;65056;-64
2022/08/19 06:46:45;;;;;;;;;;;;;;;23.98;69.71;96713.48;611589;232;68746;-64
2022/08/19 06:49:13;;;;;;;;;;;;;;;23.98;69.82;96710.80;610587;232;68618;-64
2022/08/19 06:51:43;;;;;;;;;;;;;;;23.98;70.07;96719.67;611500;232;62545;-64
2022/08/19 06:54:11;;;;;;;;;;;;;;;24.00;68.61;96716.67;611524;232;68749;-63
2022/08/19 06:56:39;;;;;;;;;;;;;;;24.01;69.48;96713.70;611661;232;68538;-64
2022/08/19 06:59:07;;;;;;;;;;;;;;;24.00;68.25;96712.09;611619;232;63084;-64
2022/08/19 07:01:37;;;;;;;;;;;;;;;24.03;69.88;96710.70;611617;232;68552;-63
2022/08/19 07:04:06;;;;;;;;;;;;;;;24.03;69.85;96710.70;611580;232;68735;-64
2022/08/19 07:06:33;;;;;;;;;;;;;;;24.02;70.42;96715.28;611635;232;65025;-64
2022/08/19 07:09:01;;;;;;;;;;;;;;;24.03;70.69;96711.49;611600;232;68914;-64
2022/08/19 07:11:28;;;;;;;;;;;;;;;24.03;70.89;96711.49;611506;232;66497;-64
2022/08/19 07:13:56;;;;;;;;;;;;;;;24.04;71.12;96712.31;611351;232;65954;-65
2022/08/19 07:16:23;;;;;;;;;;;;;;;24.03;71.09;96711.49;610812;231;68612;-65
2022/08/19 07:18:51;;;;;;;;;;;;;;;24.04;71.15;96715.00;611702;232;66801;-67
2022/08/19 07:21:24;;;;;;;;;;;;;;;24.04;71.07;96717.68;611729;232;66084;-68
2022/08/19 07:23:51;;;;;;;;;;;;;;;24.04;71.02;96705.05;611745;229;68670;-68
2022/08/19 07:26:20;;;;;;;;;;;;;;;24.04;71.16;96715.78;611644;232;68459;-68
2022/08/19 07:28:48;;;;;;;;;;;;;;;24.05;71.10;96714.68;611798;232;62154;-67
2022/08/19 07:31:18;;;;;;;;;;;;;;;24.06;71.05;96704.73;611707;232;68581;-67
2022/08/19 07:33:46;;;;;;;;;;;;;;;24.06;70.92;96707.42;611663;232;66613;-68
2022/08/19 07:36:17;;;;;;;;;;;;;;;24.05;70.93;96709.31;611745;232;46322;-68
2022/08/19 07:38:47;;;;;;;;;;;;;;;24.06;70.91;96713.61;611752;232;66116;-68
2022/08/19 07:41:17;;;;;;;;;;;;;;;24.07;70.70;96701.77;611706;232;68351;-66
2022/08/19 07:43:45;;;;;;;;;;;;;;;24.07;70.98;96701.77;611786;232;62773;-64
2022/08/19 07:46:13;;;;;;;;;;;;;;;24.07;70.82;96700.97;611706;232;68260;-65
2022/08/19 07:48:42;;;;;;;;;;;;;;;24.08;70.95;96702.55;611661;232;66410;-65
2022/08/19 07:51:10;;;;;;;;;;;;;;;24.08;71.02;96700.66;611765;232;62979;-64
2022/08/19 07:53:38;;;;;;;;;;;;;;;24.08;71.16;96697.97;611693;232;68794;-71
2022/08/19 07:56:05;;;;;;;;;;;;;;;24.10;68.99;96700.37;611682;232;68864;-65
2022/08/19 07:58:35;;;;;;;;;;;;;;;24.11;68.46;96696.59;611748;232;62558;-67
2022/08/19 08:01:04;;;;;;;;;;;;;;;24.11;69.47;96701.95;611671;232;66250;-65
2022/08/19 08:11:50;;;;;;;;;;;;;;;24.10;71.40;96693.11;599791;233;68648;-66
2022/08/19 08:14:19;;;;;;;;;;;;;;;24.11;71.45;96691.22;609097;233;62801;-69
2022/08/19 08:16:46;;;;;;;;;;;;;;;24.10;71.42;96690.42;608948;233;68427;-69
2022/08/19 08:19:18;;;;;;;;;;;;;;;24.10;71.52;96690.42;609076;233;68745;-68
2022/08/19 08:21:43;;;;;;;;;;;;;;;24.10;71.32;96693.11;608947;233;65089;-69
2022/08/19 08:24:12;;;;;;;;;;;;;;;24.11;71.53;96691.22;609003;233;66562;-69
2022/08/19 08:26:40;;;;;;;;;;;;;;;24.11;71.49;96692.01;609161;233;68591;-67
2022/08/19 08:29:11;;;;;;;;;;;;;;;24.11;71.68;96691.22;609136;233;65066;-66
2022/08/19 08:31:37;;;;;;;;;;;;;;;24.11;71.58;96692.01;608989;233;68957;-66
2022/08/19 08:34:07;;;;;;;;;;;;;;;24.11;71.65;96686.64;609109;233;49747;-68
2022/08/19 08:36:36;;;;;;;;;;;;;;;24.11;71.69;96686.64;603190;233;64896;-68
2022/08/19 08:39:04;;;;;;;;;;;;;;;24.12;71.77;96679.41;609160;233;66330;-68
2022/08/19 08:41:34;;;;;;;;;;;;;;;24.12;71.73;96677.51;609133;233;68554;-68
2022/08/19 08:44:04;;;;;;;;;;;;;;;24.12;71.68;96688.25;608330;233;62771;-68
2022/08/19 08:46:33;;;;;;;;;;;;;;;24.13;71.55;96689.03;609078;233;67309;-68
2022/08/19 08:49:08;;;;;;;;;;;;;;;24.13;71.59;96689.03;608844;233;45874;-68
2022/08/19 08:51:38;;;;;;;;;;;;;;;24.12;71.80;96679.41;608723;233;63083;-72
2022/08/19 08:54:07;;;;;;;;;;;;;;;24.13;71.59;96694.41;609059;233;69646;-68
2022/08/19 08:56:35;;;;;;;;;;;;;;;24.13;70.08;96681.77;609007;232;66343;-67
2022/08/19 08:59:08;;;;;;;;;;;;;;;24.15;70.61;96684.95;608987;233;65172;-69
2022/08/19 09:01:36;;;;;;;;;;;;;;;24.14;71.55;96672.64;609009;233;68906;-68
2022/08/19 09:04:05;;;;;;;;;;;;;;;24.15;71.28;96671.53;610788;232;68424;-68
2022/08/19 09:06:40;;;;;;;;;;;;;;;24.15;71.52;96676.11;611662;232;66036;-68
2022/08/19 09:09:13;;;;;;;;;;;;;;;24.15;71.57;96678.80;611367;232;69571;-67
2022/08/19 09:11:43;;;;;;;;;;;;;;;24.15;71.52;96666.16;611621;232;69174;-67
2022/08/19 09:14:28;;;;;;;;;;;;;;;24.14;71.60;96664.59;611584;232;62660;-67
2022/08/19 09:16:57;;;;;;;;;;;;;;;24.15;71.76;96666.16;611682;232;66296;-68
2022/08/19 09:19:25;;;;;;;;;;;;;;;24.15;71.73;96663.48;611669;232;68653;-67
2022/08/19 09:21:53;;;;;;;;;;;;;;;24.14;71.66;96659.22;611682;232;62657;-68
2022/08/19 09:24:21;;;;;;;;;;;;;;;24.14;71.55;96651.16;611646;232;68705;-68
2022/08/19 09:26:48;;;;;;;;;;;;;;;24.15;71.59;96650.06;611761;232;68619;-65
2022/08/19 09:29:16;;;;;;;;;;;;;;;24.15;71.69;96660.80;611661;232;64820;-65
2022/08/19 09:31:43;;;;;;;;;;;;;;;24.17;71.68;96662.37;611519;232;66015;-65
2022/08/19 09:34:11;;;;;;;;;;;;;;;24.17;71.72;96659.69;611584;232;68896;-68
2022/08/19 09:36:38;;;;;;;;;;;;;;;24.17;71.75;96657.80;611581;232;63667;-65
2022/08/19 09:39:06;;;;;;;;;;;;;;;24.16;71.86;96648.16;611568;232;68881;-65
2022/08/19 09:41:34;;;;;;;;;;;;;;;24.17;71.76;96660.48;611496;232;68592;-66
2022/08/19 09:44:01;;;;;;;;;;;;;;;24.17;71.71;96657.00;611622;232;64950;-66
2022/08/19 09:46:30;;;;;;;;;;;;;;;24.17;71.55;96652.42;610990;231;66327;-66
2022/08/19 09:48:59;;;;;;;;;;;;;;;24.18;71.75;96653.25;611333;232;68700;-66
2022/08/19 09:51:28;;;;;;;;;;;;;;;24.18;71.78;96651.34;611524;232;65102;-66
2022/08/19 09:53:57;;;;;;;;;;;;;;;24.18;71.86;96650.56;611654;232;68915;-67
2022/08/19 09:56:24;;;;;;;;;;;;;;;24.18;71.89;96648.66;611412;232;66532;-66
2022/08/19 09:58:53;;;;;;;;;;;;;;;24.18;71.86;96651.34;611625;232;62819;-65
2022/08/19 10:01:24;;;;;;;;;;;;;;;24.18;71.90;96654.03;611558;232;68686;-65
2022/08/19 10:03:54;;;;;;;;;;;;;;;24.19;71.94;96646.77;611582;232;68509;-66
2022/08/19 10:06:23;;;;;;;;;;;;;;;24.18;71.91;96648.66;611623;232;64915;-64
2022/08/19 10:08:51;;;;;;;;;;;;;;;24.20;71.84;96642.98;611593;232;68650;-65
2022/08/19 10:11:20;;;;;;;;;;;;;;;24.20;72.00;96637.61;611600;232;68884;-66
2022/08/19 10:13:48;;;;;;;;;;;;;;;24.20;70.78;96634.92;610196;232;65102;-64
2022/08/19 10:16:18;;;;;;;;;;;;;;;24.20;71.06;96629.55;608981;233;66625;-65
2022/08/19 10:18:46;;;;;;;;;;;;;;;24.21;71.40;96625.79;609037;233;66188;-64
2022/08/19 10:21:15;;;;;;;;;;;;;;;24.21;71.49;96625.79;609059;233;62725;-64
2022/08/19 10:23:47;;;;;;;;;;;;;;;24.20;71.41;96635.74;609012;232;66488;-65
2022/08/19 10:26:16;;;;;;;;;;;;;;;24.21;71.45;96633.84;609045;233;68994;-65
2022/08/19 10:28:43;;;;;;;;;;;;;;;24.21;71.25;96631.16;609085;233;62730;-65
2022/08/19 10:31:13;;;;;;;;;;;;;;;24.21;71.22;96636.53;609128;232;68860;-64
2022/08/19 10:33:40;;;;;;;;;;;;;;;24.21;71.08;96631.16;609075;233;68555;-64
2022/08/19 10:36:10;;;;;;;;;;;;;;;24.22;71.35;96633.53;609072;233;65186;-65
2022/08/19 10:38:39;;;;;;;;;;;;;;;24.21;71.36;96629.27;602235;235;48500;-66
2022/08/19 10:41:08;;;;;;;;;;;;;;;24.23;71.31;96634.34;609072;233;69101;-66
2022/08/19 10:43:38;;;;;;;;;;;;;;;24.23;71.28;96628.98;609034;233;62684;-65
2022/08/19 10:46:06;;;;;;;;;;;;;;;24.21;71.39;96631.16;608953;233;68331;-69
2022/08/19 10:48:34;;;;;;;;;;;;;;;24.21;71.24;96621.21;608954;233;66126;-67
2022/08/19 10:53:48;;;;;;;;;;;;;;;24.25;70.91;96622.19;608948;233;68902;-65
2022/08/19 10:59:03;;;;;;;;;;;;;;;24.25;70.78;96621.39;608972;233;62615;-65
2022/08/19 11:01:32;;;;;;;;;;;;;;;24.24;70.81;96609.86;609065;233;66433;-65
2022/08/19 11:04:01;;;;;;;;;;;;;;;24.24;70.88;96611.77;608949;231;68459;-65
2022/08/19 11:06:34;;;;;;;;;;;;;;;24.25;67.08;96605.28;608984;233;45543;-65
2022/08/19 11:09:01;;;;;;;;;;;;;;;24.26;67.58;96607.68;609022;233;66627;-65
2022/08/19 11:11:30;;;;;;;;;;;;;;;24.27;68.56;96603.89;609028;233;69050;-65
2022/08/19 11:13:57;;;;;;;;;;;;;;;24.27;70.33;96603.89;608993;233;65037;-65
2022/08/19 11:16:29;;;;;;;;;;;;;;;24.27;70.44;96598.52;608947;233;68913;-63
2022/08/19 11:18:58;;;;;;;;;;;;;;;24.26;70.43;96598.84;608785;233;68672;-63
2022/08/19 11:21:31;;;;;;;;;;;;;;;24.27;70.71;96603.09;608967;233;65196;-63
2022/08/19 11:23:59;;;;;;;;;;;;;;;24.27;70.63;96603.09;608305;233;69615;-63
2022/08/19 11:26:27;;;;;;;;;;;;;;;24.26;70.42;96601.52;608384;233;68564;-64
2022/08/19 11:28:55;;;;;;;;;;;;;;;24.27;69.80;96600.41;609004;233;64933;-65
2022/08/19 11:31:24;;;;;;;;;;;;;;;24.27;70.20;96605.78;609045;233;66470;-68
2022/08/19 11:33:53;;;;;;;;;;;;;;;24.27;70.34;96592.36;609004;233;65968;-63
2022/08/19 11:36:21;;;;;;;;;;;;;;;24.26;70.51;96586.20;608919;233;62640;-65
2022/08/19 11:38:50;;;;;;;;;;;;;;;24.27;70.78;96592.36;609096;233;68428;-65
2022/08/19 11:41:18;;;;;;;;;;;;;;;24.28;71.06;96591.25;609063;233;68498;-65
2022/08/19 11:43:46;;;;;;;;;;;;;;;24.28;71.19;96588.56;608981;233;62760;-65
2022/08/19 11:46:14;;;;;;;;;;;;;;;24.28;71.37;96589.38;609071;233;66384;-64
2022/08/19 11:48:42;;;;;;;;;;;;;;;24.29;71.10;96590.17;609079;233;68525;-64
2022/08/19 11:51:12;;;;;;;;;;;;;;;24.28;71.15;96581.33;609112;233;64952;-64
2022/08/19 11:53:39;;;;;;;;;;;;;;;24.30;71.08;96591.75;609089;233;68446;-65
2022/08/19 11:56:07;;;;;;;;;;;;;;;24.30;70.98;96586.37;608930;233;68559;-65
2022/08/19 11:58:35;;;;;;;;;;;;;;;24.30;71.03;96579.11;608989;233;65572;-66
2022/08/19 12:01:04;;;;;;;;;;;;;;;24.34;68.94;96569.37;609029;233;66015;-65
2022/08/19 12:03:32;;;;;;;;;;;;;;;24.34;67.22;96572.05;605914;231;68332;-66
2022/08/19 12:06:01;;;;;;;;;;;;;;;24.37;67.66;96576.81;602159;235;64866;-67
2022/08/19 12:08:30;;;;;;;;;;;;;;;24.36;67.53;96561.81;595484;238;50657;-66
2022/08/19 12:11:00;;;;;;;;;;;;;;;24.36;69.03;96569.05;602159;235;67464;-65
2022/08/19 12:13:30;;;;;;;;;;;;;;;24.34;69.22;96566.69;601734;235;65029;-67
2022/08/19 12:15:59;;;;;;;;;;;;;;;24.36;67.87;96564.49;601905;235;66423;-67
2022/08/19 12:18:27;;;;;;;;;;;;;;;24.36;68.43;96564.49;602181;235;66664;-65
2022/08/19 12:21:00;;;;;;;;;;;;;;;24.35;69.23;96562.89;602245;235;62542;-64
2022/08/19 12:23:26;;;;;;;;;;;;;;;24.34;68.57;96560.52;602252;234;68924;-64
2022/08/19 12:25:54;;;;;;;;;;;;;;;24.34;68.28;96558.63;602100;235;68887;-64
2022/08/19 12:28:23;;;;;;;;;;;;;;;24.35;68.57;96540.61;602153;235;64855;-65
2022/08/19 12:30:51;;;;;;;;;;;;;;;24.35;68.22;96545.98;602138;235;66692;-66
2022/08/19 12:33:24;;;;;;;;;;;;;;;24.36;68.35;96544.88;602138;235;68789;-65
2022/08/19 12:35:50;;;;;;;;;;;;;;;24.36;68.07;96536.82;602155;234;62737;-64
2022/08/19 12:38:18;;;;;;;;;;;;;;;24.35;68.15;96536.03;602180;235;68633;-63
2022/08/19 12:40:51;;;;;;;;;;;;;;;24.35;67.86;96532.56;601915;235;68867;-65
2022/08/19 12:43:20;;;;;;;;;;;;;;;24.36;68.12;96536.82;602112;235;65258;-64
2022/08/19 12:45:47;;;;;;;;;;;;;;;24.37;68.27;96541.11;602193;235;66424;-64
2022/08/19 12:48:15;;;;;;;;;;;;;;;24.36;67.79;96532.27;602227;235;66212;-64
2022/08/19 12:50:45;;;;;;;;;;;;;;;24.36;67.82;96526.90;602241;235;62747;-67
2022/08/19 12:53:13;;;;;;;;;;;;;;;24.36;67.64;96532.27;602112;235;68765;-67
2022/08/19 12:55:42;;;;;;;;;;;;;;;24.36;67.77;96531.45;602164;235;66769;-67
2022/08/19 12:58:10;;;;;;;;;;;;;;;24.37;67.64;96533.05;602232;235;63787;-69
2022/08/19 13:00:37;;;;;;;;;;;;;;;24.36;67.77;96536.82;602047;235;66741;-67
2022/08/19 13:03:05;;;;;;;;;;;;;;;24.37;67.34;96528.47;602146;232;68672;-67
2022/08/19 13:05:34;;;;;;;;;;;;;;;24.38;67.13;96521.20;602243;235;63497;-66
2022/08/19 13:08:02;;;;;;;;;;;;;;;24.38;67.55;96518.52;602120;235;68805;-67
2022/08/19 13:10:34;;;;;;;;;;;;;;;24.37;67.38;96525.78;602215;235;66368;-68
2022/08/19 13:13:01;;;;;;;;;;;;;;;24.39;67.17;96525.50;595632;237;64898;-66
2022/08/19 13:15:30;;;;;;;;;;;;;;;24.43;65.45;96523.77;604694;234;68444;-64